Time;durP1;ratioP1;P1;durP2;ratioP2;P2;SDS_P1;SDS_P2;PMS_P1;PMS_P2;Temp;Humidity;BMP_temperature;BMP_pressure;BME280_temperature;BME280_humidity;BME280_pressure;Samples;Min_cycle;Max_cycle;Signal;HPM_P1;HPM_P2
2021/12/24 00:01:50;;;;;;;0.90;0.90;;;-3.90;99.90;;;;;;5014631;28;20719;-70
2021/12/24 00:04:15;;;;;;;1.48;1.35;;;-3.90;99.90;;;;;;5012127;28;20222;-70
2021/12/24 00:06:41;;;;;;;0.90;0.90;;;-3.90;99.90;;;;;;5013271;28;20659;-70
2021/12/24 00:09:07;;;;;;;0.90;0.90;;;-3.90;99.90;;;;;;5013519;28;20216;-70
2021/12/24 00:11:35;;;;;;;0.80;0.80;;;-3.90;99.90;;;;;;5014407;28;20214;-70
2021/12/24 00:14:03;;;;;;;0.82;0.82;;;-3.80;99.90;;;;;;5013277;28;20278;-70
2021/12/24 00:16:40;;;;;;;0.90;0.90;;;-3.80;99.90;;;;;;5014345;28;20233;-71
2021/12/24 00:19:17;;;;;;;0.82;0.82;;;-3.80;99.90;;;;;;5014530;28;20206;-72
2021/12/24 00:35:33;;;;;;;0.80;0.80;;;-3.90;99.90;;;;;;5014232;28;20214;-70
2021/12/24 00:38:03;;;;;;;0.87;0.87;;;-3.90;99.90;;;;;;5014298;28;20202;-70
2021/12/24 00:40:33;;;;;;;1.13;1.13;;;-3.90;99.90;;;;;;5012781;28;20202;-70
2021/12/24 00:42:59;;;;;;;0.80;0.80;;;-3.90;99.90;;;;;;5011389;28;20214;-69
2021/12/24 00:45:28;;;;;;;0.90;0.90;;;-3.90;99.90;;;;;;5012539;28;20210;-70
2021/12/24 00:47:55;;;;;;;0.90;0.90;;;-3.90;99.90;;;;;;5014020;28;20214;-70
2021/12/24 00:50:25;;;;;;;0.80;0.80;;;-3.90;99.90;;;;;;5012484;28;20224;-71
2021/12/24 00:55:38;;;;;;;0.85;0.85;;;-4.00;99.90;;;;;;4982105;28;20246;-70
2021/12/24 00:58:04;;;;;;;0.80;0.80;;;-4.00;99.90;;;;;;5013698;28;20214;-70
2021/12/24 01:00:36;;;;;;;1.00;1.00;;;-4.00;99.90;;;;;;5012283;28;20213;-70
2021/12/24 01:03:05;;;;;;;0.90;0.90;;;-4.10;99.90;;;;;;5013713;28;20312;-70
2021/12/24 01:05:31;;;;;;;0.88;0.88;;;-4.10;99.90;;;;;;5010978;28;20360;-70
2021/12/24 01:07:57;;;;;;;0.73;0.73;;;-4.20;99.90;;;;;;5012560;28;20285;-70
2021/12/24 01:10:27;;;;;;;0.90;0.90;;;-4.20;99.90;;;;;;5013198;28;20242;-70
2021/12/24 01:12:54;;;;;;;0.77;0.77;;;-4.30;99.90;;;;;;5012308;28;20210;-71
2021/12/24 01:15:20;;;;;;;1.00;1.00;;;-4.30;99.90;;;;;;5011697;28;20305;-70
2021/12/24 01:17:58;;;;;;;0.90;0.90;;;-4.30;99.90;;;;;;5013371;28;20198;-70
2021/12/24 01:20:31;;;;;;;1.00;1.00;;;-4.30;99.90;;;;;;5013041;28;20206;-71
2021/12/24 01:25:50;;;;;;;0.80;0.80;;;-4.40;99.90;;;;;;5013440;28;20688;-71
2021/12/24 01:39:24;;;;;;;0.87;0.87;;;-4.60;99.90;;;;;;5013510;28;20241;-70
2021/12/24 01:44:35;;;;;;;0.80;0.80;;;-4.70;99.90;;;;;;5011191;28;20253;-72
2021/12/24 01:47:04;;;;;;;0.80;0.80;;;-4.70;99.90;;;;;;5029018;28;20252;-71
2021/12/24 01:49:31;;;;;;;0.90;0.90;;;-4.70;99.90;;;;;;5027757;28;20741;-70
2021/12/24 01:51:57;;;;;;;0.90;0.90;;;-4.80;99.90;;;;;;5012877;28;20211;-71
2021/12/24 01:54:25;;;;;;;0.80;0.80;;;-4.80;99.90;;;;;;5012926;28;20249;-70
2021/12/24 01:56:51;;;;;;;0.90;0.90;;;-4.80;99.90;;;;;;5011565;28;20210;-71
2021/12/24 01:59:17;;;;;;;0.90;0.90;;;-4.90;99.90;;;;;;5010809;28;20691;-70
2021/12/24 02:01:43;;;;;;;0.80;0.80;;;-4.90;99.90;;;;;;5011349;28;20217;-70
2021/12/24 02:04:11;;;;;;;0.73;0.73;;;-5.00;99.90;;;;;;5012498;28;20207;-70
2021/12/24 02:06:39;;;;;;;0.80;0.80;;;-5.00;99.90;;;;;;5011162;28;20693;-71
2021/12/24 02:09:06;;;;;;;1.00;1.00;;;-5.10;99.90;;;;;;5023204;28;20198;-70
2021/12/24 02:11:37;;;;;;;0.87;0.87;;;-5.20;99.90;;;;;;4999684;28;20246;-70
2021/12/24 02:14:20;;;;;;;0.90;0.90;;;-5.30;99.90;;;;;;5026213;28;20219;-70
2021/12/24 02:30:39;;;;;;;1.00;1.00;;;-5.80;99.90;;;;;;5010784;28;20237;-70
2021/12/24 02:33:05;;;;;;;0.90;0.90;;;-5.90;99.90;;;;;;5012179;28;20239;-70
2021/12/24 02:35:32;;;;;;;0.90;0.90;;;-6.00;99.90;;;;;;5011736;28;20203;-70
2021/12/24 02:37:59;;;;;;;1.00;1.00;;;-6.10;99.90;;;;;;5012139;28;20670;-67
2021/12/24 02:40:25;;;;;;;1.00;1.00;;;-6.20;99.90;;;;;;5010660;28;20623;-70
2021/12/24 02:42:54;;;;;;;0.90;0.90;;;-6.20;99.90;;;;;;5011886;28;20685;-70
2021/12/24 02:45:25;;;;;;;1.00;1.00;;;-6.30;99.90;;;;;;5010553;28;20195;-70
2021/12/24 02:56:01;;;;;;;1.00;1.00;;;-6.50;99.90;;;;;;5010754;28;20296;-70
2021/12/24 02:58:26;;;;;;;0.93;0.93;;;-6.50;99.90;;;;;;5008880;28;20211;-70
2021/12/24 03:00:52;;;;;;;0.93;0.93;;;-6.50;99.90;;;;;;5009137;28;20219;-70
2021/12/24 03:03:18;;;;;;;1.10;1.10;;;-6.60;99.90;;;;;;5010151;28;20289;-70
2021/12/24 03:05:43;;;;;;;0.90;0.90;;;-6.60;99.90;;;;;;5010159;28;20226;-70
2021/12/24 03:08:09;;;;;;;1.00;1.00;;;-6.70;99.90;;;;;;5011359;28;20242;-70
2021/12/24 03:10:36;;;;;;;0.90;0.90;;;-6.70;99.90;;;;;;5011031;28;20222;-70
2021/12/24 03:13:03;;;;;;;0.90;0.90;;;-6.70;99.90;;;;;;5010009;28;20202;-70
2021/12/24 03:15:29;;;;;;;1.03;1.03;;;-6.70;99.90;;;;;;5009413;28;20237;-69
2021/12/24 03:17:58;;;;;;;0.90;0.90;;;-6.80;99.90;;;;;;5008565;28;20610;-70
2021/12/24 03:20:24;;;;;;;1.00;1.00;;;-6.80;99.90;;;;;;5011110;28;20202;-70
2021/12/24 03:23:21;;;;;;;0.90;0.90;;;-6.80;99.90;;;;;;5008484;28;20563;-70
2021/12/24 03:25:47;;;;;;;0.90;0.90;;;-6.90;99.90;;;;;;4996844;28;20226;-70
2021/12/24 03:28:12;;;;;;;0.90;0.90;;;-6.90;99.90;;;;;;5010191;28;20203;-70
2021/12/24 03:30:38;;;;;;;0.90;0.90;;;-7.00;99.90;;;;;;5010966;28;20214;-70
2021/12/24 03:33:04;;;;;;;1.00;1.00;;;-7.10;99.90;;;;;;5009779;28;20293;-70
2021/12/24 03:35:30;;;;;;;1.00;1.00;;;-7.20;99.90;;;;;;5010774;28;20285;-70
2021/12/24 03:37:55;;;;;;;0.90;0.90;;;-7.20;99.90;;;;;;4992793;28;20678;-70
2021/12/24 03:40:21;;;;;;;0.90;0.90;;;-7.30;99.90;;;;;;5010281;28;20617;-70
2021/12/24 03:42:47;;;;;;;0.90;0.90;;;-7.40;99.90;;;;;;5010985;28;20207;-70
2021/12/24 03:45:35;;;;;;;1.00;1.00;;;-7.40;99.90;;;;;;5010342;28;20206;-70
2021/12/24 03:48:13;;;;;;;1.00;1.00;;;-7.50;99.90;;;;;;5010367;28;20203;-70
2021/12/24 03:50:49;;;;;;;1.00;1.00;;;-7.60;99.90;;;;;;5010194;28;20202;-71
2021/12/24 03:55:59;;;;;;;0.97;0.97;;;-7.70;99.90;;;;;;4993455;28;20214;-70
2021/12/24 03:58:24;;;;;;;1.00;1.00;;;-7.80;99.90;;;;;;5009586;28;20202;-70
2021/12/24 04:00:51;;;;;;;0.90;0.90;;;-7.80;99.90;;;;;;5008557;28;20684;-71
2021/12/24 04:03:17;;;;;;;1.10;1.10;;;-7.90;99.90;;;;;;5008523;28;20207;-70
2021/12/24 04:05:43;;;;;;;1.00;1.00;;;-8.00;99.90;;;;;;5010829;28;20211;-70
2021/12/24 04:08:10;;;;;;;1.00;1.00;;;-8.10;99.90;;;;;;5010078;28;20206;-70
2021/12/24 04:10:41;;;;;;;1.00;1.00;;;-8.10;99.90;;;;;;5009704;28;20230;-69
2021/12/24 04:13:08;;;;;;;1.00;1.00;;;-8.20;99.90;;;;;;5009563;28;20203;-69
2021/12/24 04:15:35;;;;;;;0.90;0.90;;;-8.30;99.90;;;;;;5010259;28;20277;-70
2021/12/24 04:18:11;;;;;;;0.97;0.97;;;-8.30;99.90;;;;;;5010799;28;20752;-69
2021/12/24 04:26:04;;;;;;;0.93;0.93;;;-8.40;99.90;;;;;;5008952;28;20746;-69
2021/12/24 04:28:30;;;;;;;0.90;0.90;;;-8.40;99.90;;;;;;5012608;28;20226;-69
2021/12/24 04:30:56;;;;;;;0.93;0.93;;;-8.50;99.90;;;;;;5014390;28;20227;-69
2021/12/24 04:33:35;;;;;;;0.90;0.90;;;-8.60;99.90;;;;;;5013625;28;20203;-70
2021/12/24 05:03:12;;;;;;;1.00;1.00;;;-9.50;99.90;;;;;;5012318;28;20216;-69
2021/12/24 05:05:45;;;;;;;1.00;1.00;;;-9.60;99.90;;;;;;5011800;28;20207;-70
2021/12/24 05:08:22;;;;;;;0.90;0.90;;;-9.70;99.90;;;;;;5013424;28;20620;-69
2021/12/24 05:10:49;;;;;;;1.00;1.00;;;-9.80;99.90;;;;;;5010666;28;20257;-70
2021/12/24 05:13:16;;;;;;;1.00;1.00;;;-9.90;99.90;;;;;;5013433;28;20250;-70
2021/12/24 05:15:45;;;;;;;1.00;1.00;;;-10.00;99.90;;;;;;5011625;28;20226;-69
2021/12/24 05:23:28;;;;;;;1.00;1.00;;;-10.00;99.90;;;;;;5011734;28;20281;-70
2021/12/24 05:25:54;;;;;;;0.90;0.90;;;-9.90;99.90;;;;;;5010508;28;20207;-70
2021/12/24 05:28:20;;;;;;;0.90;0.90;;;-9.90;99.90;;;;;;5011699;28;20214;-70
2021/12/24 05:30:47;;;;;;;1.00;1.00;;;-9.80;99.90;;;;;;5011775;28;20249;-70
2021/12/24 05:33:15;;;;;;;1.00;1.00;;;-9.80;99.90;;;;;;5013076;28;20277;-70
2021/12/24 05:35:41;;;;;;;0.93;0.93;;;-9.90;99.90;;;;;;5011388;28;20294;-70
2021/12/24 05:38:07;;;;;;;1.10;1.10;;;-9.90;99.90;;;;;;5011310;28;20210;-70
2021/12/24 05:40:33;;;;;;;0.97;0.97;;;-10.00;99.90;;;;;;5012902;28;20259;-71
2021/12/24 05:42:59;;;;;;;0.90;0.90;;;-9.90;99.90;;;;;;5011355;28;20213;-70
2021/12/24 05:45:25;;;;;;;1.03;1.03;;;-9.90;99.90;;;;;;5012560;28;20203;-69
2021/12/24 05:47:51;;;;;;;0.93;0.93;;;-10.00;99.90;;;;;;5012509;28;20191;-70
2021/12/24 05:50:17;;;;;;;0.90;0.90;;;-10.00;99.90;;;;;;5011445;28;20221;-70
2021/12/24 05:52:43;;;;;;;1.10;1.10;;;-9.90;99.90;;;;;;5011463;28;20263;-70
2021/12/24 05:55:10;;;;;;;0.90;0.90;;;-9.90;99.90;;;;;;5011784;28;20309;-70
2021/12/24 05:57:36;;;;;;;1.00;1.00;;;-10.00;99.90;;;;;;5011607;28;20203;-69
2021/12/24 06:00:05;;;;;;;0.90;0.90;;;-10.00;99.90;;;;;;5012671;28;20207;-69
2021/12/24 06:02:31;;;;;;;1.00;1.00;;;-10.00;99.90;;;;;;5010874;28;20635;-70
2021/12/24 06:04:57;;;;;;;0.90;0.90;;;-10.20;99.90;;;;;;5012255;28;20265;-70
2021/12/24 06:07:22;;;;;;;1.00;1.00;;;-10.20;99.90;;;;;;5010872;28;20203;-69
2021/12/24 06:09:48;;;;;;;1.00;1.00;;;-10.30;99.90;;;;;;5012216;28;20206;-70
2021/12/24 06:12:14;;;;;;;1.00;1.00;;;-10.20;99.90;;;;;;5011023;28;20207;-69
2021/12/24 06:14:41;;;;;;;0.83;0.83;;;-10.20;99.90;;;;;;5009625;28;20206;-70
2021/12/24 06:17:13;;;;;;;1.00;1.00;;;-10.20;99.90;;;;;;5010578;28;20737;-69
2021/12/24 06:19:39;;;;;;;0.93;0.93;;;-10.20;99.90;;;;;;5012104;28;20286;-70
2021/12/24 06:22:05;;;;;;;1.00;1.00;;;-10.30;99.90;;;;;;5010928;28;20309;-70
2021/12/24 06:24:31;;;;;;;1.00;1.00;;;-10.30;99.90;;;;;;5010774;28;20219;-70
2021/12/24 06:26:56;;;;;;;0.90;0.90;;;-10.40;99.90;;;;;;5010743;28;20566;-69
2021/12/24 06:29:22;;;;;;;1.00;1.00;;;-10.40;99.90;;;;;;5011901;28;20413;-70
2021/12/24 06:31:49;;;;;;;1.10;1.10;;;-10.40;99.90;;;;;;5010822;28;20207;-70
2021/12/24 06:34:16;;;;;;;0.97;0.97;;;-10.40;99.90;;;;;;5010990;28;20581;-70
2021/12/24 06:36:44;;;;;;;0.90;0.90;;;-10.40;99.90;;;;;;5010538;28;20272;-70
2021/12/24 06:39:11;;;;;;;0.90;0.90;;;-10.40;99.90;;;;;;5012008;28;20692;-70
2021/12/24 06:41:36;;;;;;;1.00;1.00;;;-10.30;99.90;;;;;;5011696;28;20205;-70
2021/12/24 06:44:04;;;;;;;1.00;1.00;;;-10.40;99.90;;;;;;5010831;28;20636;-69
2021/12/24 06:46:30;;;;;;;1.00;1.00;;;-10.40;99.90;;;;;;5010897;28;20658;-70
2021/12/24 06:48:56;;;;;;;1.00;1.00;;;-10.40;99.90;;;;;;5010751;28;20230;-70
2021/12/24 06:51:26;;;;;;;1.00;1.00;;;-10.40;99.90;;;;;;5010088;28;20285;-69
2021/12/24 06:53:52;;;;;;;0.90;0.90;;;-10.30;99.90;;;;;;5011831;28;20218;-69
2021/12/24 06:56:18;;;;;;;1.00;1.00;;;-10.30;99.90;;;;;;5011600;28;20229;-69
2021/12/24 06:58:44;;;;;;;0.90;0.90;;;-10.40;99.90;;;;;;5008999;28;20203;-69
2021/12/24 07:01:10;;;;;;;0.90;0.90;;;-10.30;99.90;;;;;;5011520;28;20579;-69
2021/12/24 07:03:37;;;;;;;0.93;0.93;;;-10.30;99.90;;;;;;5011490;28;20239;-70
2021/12/24 07:06:03;;;;;;;0.90;0.90;;;-10.20;99.90;;;;;;5010254;28;20717;-69
2021/12/24 07:08:30;;;;;;;1.00;1.00;;;-10.20;99.90;;;;;;5010673;28;20205;-71
2021/12/24 07:10:55;;;;;;;0.90;0.90;;;-10.20;99.90;;;;;;5011160;28;20207;-70
2021/12/24 07:13:21;;;;;;;0.90;0.90;;;-10.20;99.90;;;;;;5009736;28;20206;-70
2021/12/24 07:15:47;;;;;;;1.00;1.00;;;-10.20;99.90;;;;;;5011030;28;20225;-70
2021/12/24 07:18:13;;;;;;;0.90;0.90;;;-10.20;99.90;;;;;;5011269;28;20560;-70
2021/12/24 07:20:39;;;;;;;1.00;1.00;;;-10.30;99.90;;;;;;5011061;28;20210;-70
2021/12/24 07:23:04;;;;;;;0.90;0.90;;;-10.30;99.90;;;;;;5009946;28;20593;-70
2021/12/24 07:25:31;;;;;;;0.97;0.97;;;-10.30;99.90;;;;;;5011195;28;20210;-69
2021/12/24 07:27:57;;;;;;;1.00;1.00;;;-10.20;99.90;;;;;;5011318;28;20218;-70
2021/12/24 07:30:23;;;;;;;1.07;1.07;;;-10.20;99.90;;;;;;5009800;28;20943;-70
2021/12/24 07:32:49;;;;;;;1.00;1.00;;;-10.20;99.90;;;;;;5011512;28;20280;-70
2021/12/24 07:35:16;;;;;;;3.93;3.57;;;-10.20;99.90;;;;;;5011313;28;20258;-69
2021/12/24 07:37:42;;;;;;;1.40;1.30;;;-10.20;99.90;;;;;;5008741;28;20211;-70
2021/12/24 07:40:09;;;;;;;1.00;1.00;;;-10.20;99.90;;;;;;5011161;28;20581;-69
2021/12/24 07:42:36;;;;;;;1.10;1.10;;;-10.20;99.90;;;;;;5009656;28;20207;-69
2021/12/24 07:45:04;;;;;;;1.00;1.00;;;-10.20;99.90;;;;;;5011168;28;20207;-69
2021/12/24 07:47:37;;;;;;;0.90;0.90;;;-10.20;99.90;;;;;;5010956;28;20203;-70
2021/12/24 07:50:17;;;;;;;0.90;0.90;;;-10.20;99.90;;;;;;5011236;28;20203;-69
2021/12/24 07:52:44;;;;;;;0.90;0.90;;;-10.30;99.90;;;;;;5010924;28;20214;-69
2021/12/24 07:55:11;;;;;;;1.07;1.07;;;-10.30;99.90;;;;;;5010979;28;20203;-69
2021/12/24 07:57:38;;;;;;;1.00;1.00;;;-10.20;99.90;;;;;;5010885;28;20269;-69
2021/12/24 08:00:06;;;;;;;0.90;0.90;;;-10.30;99.90;;;;;;5009922;28;20233;-70
2021/12/24 08:02:32;;;;;;;1.00;1.00;;;-10.20;99.90;;;;;;5013983;28;20249;-70
2021/12/24 08:04:58;;;;;;;1.00;1.00;;;-10.30;99.90;;;;;;5013977;28;20202;-69
2021/12/24 08:07:24;;;;;;;1.00;1.00;;;-10.30;99.90;;;;;;5013250;28;20716;-70
2021/12/24 08:09:51;;;;;;;1.00;1.00;;;-10.20;99.90;;;;;;5014682;28;20230;-69
2021/12/24 08:12:17;;;;;;;1.10;1.10;;;-10.20;99.90;;;;;;5013310;28;20210;-70
2021/12/24 08:14:44;;;;;;;1.10;1.10;;;-10.30;99.90;;;;;;5014873;28;20549;-70
2021/12/24 08:17:11;;;;;;;1.10;1.10;;;-10.30;99.90;;;;;;5013158;28;20218;-70
2021/12/24 08:19:37;;;;;;;1.00;1.00;;;-10.30;99.90;;;;;;5013251;28;20658;-70
2021/12/24 08:22:03;;;;;;;0.90;0.90;;;-10.20;99.90;;;;;;5013486;28;20259;-70
2021/12/24 08:24:30;;;;;;;1.00;1.00;;;-10.20;99.90;;;;;;5013035;28;20221;-70
2021/12/24 08:26:56;;;;;;;1.00;1.00;;;-10.20;99.90;;;;;;5013053;28;20197;-71
2021/12/24 08:29:22;;;;;;;1.40;1.30;;;-10.20;99.90;;;;;;5013285;28;20758;-70
2021/12/24 08:31:50;;;;;;;0.97;0.97;;;-10.20;99.90;;;;;;5014450;28;20350;-69
2021/12/24 08:34:17;;;;;;;2.93;2.70;;;-10.20;99.90;;;;;;5014254;28;20206;-70
2021/12/24 08:36:44;;;;;;;0.97;0.97;;;-10.20;99.90;;;;;;5014500;28;20704;-70
2021/12/24 08:39:10;;;;;;;3.33;1.90;;;-10.20;99.90;;;;;;5013245;28;20709;-70
2021/12/24 08:41:35;;;;;;;0.90;0.90;;;-10.20;99.90;;;;;;5013758;28;20234;-70
2021/12/24 08:44:02;;;;;;;1.00;1.00;;;-10.20;99.90;;;;;;5014117;28;20242;-70
2021/12/24 08:46:28;;;;;;;1.00;1.00;;;-10.20;99.90;;;;;;5012337;28;20227;-70
2021/12/24 08:48:54;;;;;;;1.10;1.10;;;-10.20;99.90;;;;;;5014015;28;20238;-70
2021/12/24 08:51:22;;;;;;;1.00;1.00;;;-10.10;99.90;;;;;;5012518;28;20253;-70
2021/12/24 08:53:48;;;;;;;0.90;0.90;;;-10.10;99.90;;;;;;5013839;28;20289;-70
2021/12/24 08:56:14;;;;;;;0.90;0.90;;;-10.10;99.90;;;;;;5013822;28;20298;-70
2021/12/24 08:58:39;;;;;;;0.90;0.90;;;-10.10;99.90;;;;;;5013732;28;20305;-70
2021/12/24 09:01:06;;;;;;;1.00;1.00;;;-10.10;99.90;;;;;;5013563;28;20598;-72
2021/12/24 09:03:32;;;;;;;0.90;0.90;;;-10.00;99.90;;;;;;5013476;28;20213;-72
2021/12/24 09:05:58;;;;;;;0.90;0.90;;;-10.00;99.90;;;;;;5012393;28;20577;-73
2021/12/24 09:08:23;;;;;;;1.00;1.00;;;-10.00;99.90;;;;;;5012138;28;20207;-73
2021/12/24 09:10:49;;;;;;;1.13;1.13;;;-10.00;99.90;;;;;;5013524;28;20206;-73
2021/12/24 09:13:15;;;;;;;0.90;0.90;;;-9.90;99.90;;;;;;5011521;28;20222;-71
2021/12/24 09:15:41;;;;;;;1.00;1.00;;;-9.90;99.90;;;;;;5011837;28;20226;-71
2021/12/24 09:18:07;;;;;;;0.97;0.97;;;-9.90;99.90;;;;;;5012115;28;20214;-72
2021/12/24 09:20:38;;;;;;;0.90;0.90;;;-9.80;99.90;;;;;;5013168;28;20533;-71
2021/12/24 09:23:06;;;;;;;1.00;1.00;;;-9.90;99.90;;;;;;5010912;28;20658;-71
2021/12/24 09:25:32;;;;;;;0.90;0.90;;;-9.80;99.90;;;;;;5011297;28;20195;-72
2021/12/24 09:27:59;;;;;;;0.90;0.90;;;-9.80;99.90;;;;;;5012581;28;20281;-71
2021/12/24 09:30:26;;;;;;;1.00;1.00;;;-9.70;99.90;;;;;;5012966;28;20207;-71
2021/12/24 09:32:52;;;;;;;1.00;1.00;;;-9.70;99.90;;;;;;5013070;28;20576;-71
2021/12/24 09:35:21;;;;;;;0.90;0.90;;;-9.70;99.90;;;;;;5008522;28;20207;-70
2021/12/24 09:37:50;;;;;;;1.00;1.00;;;-9.60;99.90;;;;;;5013322;28;20269;-72
2021/12/24 09:40:18;;;;;;;1.00;1.00;;;-9.60;99.90;;;;;;5013071;28;20294;-71
2021/12/24 09:42:44;;;;;;;0.97;0.97;;;-9.60;99.90;;;;;;5011595;28;20207;-72
2021/12/24 09:45:11;;;;;;;1.10;1.10;;;-9.50;99.90;;;;;;5013041;28;20237;-71
2021/12/24 09:47:37;;;;;;;0.90;0.90;;;-9.50;99.90;;;;;;5010210;28;20207;-71
2021/12/24 09:50:04;;;;;;;0.97;0.97;;;-9.50;99.90;;;;;;5012892;28;20214;-71
2021/12/24 09:52:31;;;;;;;1.00;1.00;;;-9.50;99.90;;;;;;5011182;28;20215;-71
2021/12/24 09:55:05;;;;;;;0.90;0.90;;;-9.50;99.90;;;;;;5011502;28;20229;-71
2021/12/24 09:57:31;;;;;;;1.20;1.20;;;-9.50;99.90;;;;;;5011287;28;20210;-71
2021/12/24 09:59:56;;;;;;;1.03;1.03;;;-9.40;99.90;;;;;;5000781;28;20215;-72
2021/12/24 10:02:28;;;;;;;1.03;1.03;;;-9.40;99.90;;;;;;5003089;28;20594;-70
2021/12/24 10:04:54;;;;;;;0.90;0.90;;;-9.40;99.90;;;;;;5011242;28;20274;-70
2021/12/24 10:07:24;;;;;;;1.50;1.40;;;-9.40;99.90;;;;;;5011094;28;20640;-71
2021/12/24 10:09:50;;;;;;;1.00;1.00;;;-9.30;99.90;;;;;;5011351;28;20256;-71
2021/12/24 10:12:24;;;;;;;1.10;1.10;;;-9.30;99.90;;;;;;5011610;28;20240;-71
2021/12/24 10:15:01;;;;;;;0.90;0.90;;;-9.40;99.90;;;;;;5012229;28;20249;-72
2021/12/24 10:17:33;;;;;;;0.90;0.90;;;-9.40;99.90;;;;;;5009877;28;20214;-72
2021/12/24 10:20:10;;;;;;;0.90;0.90;;;-9.40;99.90;;;;;;5010946;28;20240;-70
2021/12/24 10:22:51;;;;;;;0.90;0.90;;;-9.40;99.90;;;;;;5011661;28;20218;-70
